Latest Weather Observations for Albury

IDN60801

Issued at 7:35 am EST Tuesday 2 September 2014 (issued every 30 minutes, with the page automatically refreshed every 10 minutes)

About weather observations | Map of weather stations | Latest weather observations for NSW | Other Formats
Station Details ID: 072160 Name: ALBURY AIRPORT AWS Lat: -36.07 Lon: 146.95 Height: 163.5 m
Data from the previous 72 hours. | See also: Recent months at Albury
Date/Time
EST
Temp
°C
App
Temp
°C
Dew
Point
Rel
Hum
%
Delta-T
°C
Wind Press
QNH
hPa
Press
MSL
hPa
Rain
since 9 am
mm
Dir
 
Spd
km/h
Gust
km/h
Spd
kts
Gust
kts
02/07:30am 8.3 6.5 7.2 93 0.5 NW 6 7 3 4 1013.6 - 1.0
02/07:00am 7.3 5.3 6.1 92 0.5 NNE 6 7 3 4 1013.3 1013.4 1.0
02/06:30am 7.1 4.8 5.7 91 0.6 N 7 9 4 5 1012.9 - 1.0
02/06:00am 8.3 6.1 6.3 87 0.9 WSW 7 9 4 5 1012.5 1012.5 1.0
02/05:30am 8.2 4.9 6.3 88 0.9 WSW 13 19 7 10 1012.2 - 1.0
02/05:00am 8.1 5.1 6.2 88 0.9 WSW 11 17 6 9 1011.9 1011.9 1.0
02/04:30am 8.5 4.5 6.8 89 0.8 WSW 17 22 9 12 1011.6 - 1.0
02/04:00am 8.8 5.0 7.4 91 0.7 W 17 24 9 13 1011.5 1011.5 1.0
02/03:30am 9.0 4.7 7.8 92 0.6 W 20 28 11 15 1011.3 - 1.0
02/03:00am 9.3 5.2 7.9 91 0.7 WNW 19 24 10 13 1011.3 1011.3 1.0
02/02:46am 9.2 5.5 8.1 93 0.5 W 17 22 9 12 1011.1 - 1.0
02/02:30am 9.2 6.4 8.4 95 0.4 WNW 13 17 7 9 1011.1 - 1.0
02/02:00am 8.8 6.6 7.9 94 0.4 WNW 9 13 5 7 1010.8 1010.8 1.0
02/01:30am 9.3 7.2 8.4 94 0.4 NW 9 15 5 8 1011.3 - 1.0
02/01:00am 9.5 7.1 8.7 95 0.4 WNW 11 15 6 8 1011.5 1011.5 1.0
02/12:30am 9.7 6.9 8.6 93 0.5 WNW 13 19 7 10 1011.7 - 1.0
02/12:06am 9.8 7.4 8.7 93 0.5 WNW 11 15 6 8 1011.6 - 1.0
02/12:00am 9.7 6.9 8.6 93 0.5 WNW 13 17 7 9 1011.6 1011.6 1.0
 
Date/Time
EST
Temp
°C
App
Temp
°C
Dew
Point
Rel
Hum
%
Delta-T
°C
Wind Press
QNH
hPa
Press
MSL
hPa
Rain
since 9 am
mm
Dir
 
Spd
km/h
Gust
km/h
Spd
kts
Gust
kts
01/11:38pm 9.9 6.4 8.7 92 0.6 WNW 17 22 9 12 1011.6 - 1.0
01/11:30pm 9.9 6.4 8.7 92 0.6 WNW 17 20 9 11 1011.6 - 1.0
01/11:00pm 10.0 7.3 9.1 94 0.4 WNW 13 19 7 10 1011.6 1011.6 1.0
01/10:32pm 10.1 8.3 9.5 96 0.3 WNW 9 11 5 6 1011.5 - 1.0
01/10:30pm 10.1 8.3 9.5 96 0.3 WNW 9 13 5 7 1011.5 - 1.0
01/10:00pm 10.0 7.3 9.1 94 0.4 W 13 15 7 8 1011.5 1011.5 1.0
01/09:30pm 10.1 7.7 8.7 91 0.7 WNW 11 17 6 9 1011.8 - 1.0
01/09:00pm 10.6 8.5 9.7 94 0.5 WNW 11 15 6 8 1012.0 1012.0 0.8
01/08:30pm 10.9 9.1 9.5 91 0.7 NNW 9 11 5 6 1011.7 - 0.2
01/08:00pm 11.0 9.2 9.3 89 0.9 NW 9 15 5 8 1011.6 1011.6 0.0
01/07:30pm 11.3 8.8 9.6 89 0.9 W 13 19 7 10 1011.2 - 0.0
01/07:00pm 11.6 8.3 9.5 87 1.1 W 17 20 9 11 1011.1 1011.1 0.0
01/06:30pm 12.0 9.4 9.4 84 1.3 WNW 13 19 7 10 1010.8 - 0.0
01/06:00pm 12.9 10.5 8.6 75 2.2 WNW 11 15 6 8 1010.5 1010.5 0.0
01/05:30pm 13.7 10.1 8.3 70 2.7 W 17 28 9 15 1010.2 - 0.0
01/05:00pm 14.6 9.4 7.2 61 3.7 W 24 39 13 21 1009.9 1009.9 0.0
01/04:30pm 16.6 11.9 5.9 49 5.2 W 20 30 11 16 1009.0 - 0.0
01/04:00pm 17.6 13.0 6.5 48 5.5 W 20 30 11 16 1008.8 1008.9 0.0
01/03:30pm 18.4 13.7 5.9 44 6.2 W 20 28 11 15 1008.6 - 0.0
01/03:00pm 19.4 15.2 5.5 40 6.9 NW 17 24 9 13 1008.7 1008.8 0.0
01/02:30pm 20.2 15.8 6.5 41 6.9 NNW 19 28 10 15 1009.1 - 0.0
01/02:00pm 20.0 16.6 9.0 49 5.8 N 17 20 9 11 1009.4 1009.4 0.0
01/01:30pm 18.9 14.8 8.0 49 5.6 N 19 26 10 14 1009.8 - 0.0
01/01:00pm 18.9 15.1 7.4 47 5.9 N 17 24 9 13 1010.4 1010.4 0.0
01/12:30pm 18.1 14.0 7.8 51 5.3 N 19 26 10 14 1011.1 - 0.0
01/12:00pm 18.4 14.1 7.2 48 5.7 N 19 24 10 13 1011.6 1011.6 0.0
01/11:30am 18.9 15.6 8.0 49 5.6 NNE 15 24 8 13 1012.2 - 0.0
01/11:00am 17.5 14.1 7.8 53 5.0 NNE 15 22 8 12 1012.7 1012.8 0.0
01/10:30am 17.3 12.9 7.4 52 5.0 NNE 20 26 11 14 1013.2 - 0.0
01/10:00am 14.3 13.1 9.7 74 2.4 ESE 6 9 3 5 1013.8 1013.9 0.0
01/09:30am 12.8 11.4 8.9 77 2.0 ESE 6 11 3 6 1014.3 - 0.0
01/09:00am 11.5 9.5 8.7 83 1.4 E 9 11 5 6 1014.4 1014.7 0.0
01/08:30am 9.2 7.3 6.8 85 1.1 SE 6 7 3 4 1014.9 - 0.0
01/08:00am 8.6 7.8 8.3 98 0.1 WSW 2 6 1 3 1014.9 1015.2 0.0
01/07:30am 5.3 3.8 5.0 98 0.1 N 2 6 1 3 1014.9 - 0.0
01/07:00am 4.9 3.7 4.6 98 0.1 CALM 0 0 0 0 1014.8 1015.1 0.0
01/06:30am 5.0 3.1 4.7 98 0.1 N 4 6 2 3 1015.1 - 0.0
01/06:00am 5.1 3.9 4.7 97 0.2 CALM 0 0 0 0 1015.3 1015.6 0.0
01/05:30am 4.6 3.2 3.7 94 0.4 CALM 0 0 0 0 1015.2 - 0.0
01/05:00am 5.5 4.4 4.9 96 0.3 CALM 0 0 0 0 1015.3 1015.6 0.0
01/04:30am 5.3 4.1 4.6 95 0.3 CALM 0 0 0 0 1015.1 - 0.0
01/04:00am 5.5 4.4 4.9 96 0.3 CALM 0 7 0 4 1015.1 1015.4 0.0
01/03:30am 5.0 2.9 4.1 94 0.4 N 4 7 2 4 1015.4 - 0.0
01/03:00am 5.5 3.2 4.8 95 0.3 NNE 6 7 3 4 1015.6 1015.9 0.0
01/02:30am 5.6 3.3 4.6 93 0.4 NE 6 7 3 4 1015.8 - 0.0
01/02:00am 6.3 4.2 5.6 95 0.3 NNW 6 7 3 4 1015.9 1016.1 0.0
01/01:30am 5.9 4.8 5.3 96 0.3 CALM 0 0 0 0 1015.8 - 0.0
01/01:00am 6.4 4.3 5.7 95 0.3 SSE 6 7 3 4 1015.9 1016.1 0.0
01/12:30am 6.5 5.0 5.0 90 0.7 E 2 6 1 3 1016.0 - 0.0
01/12:00am 6.9 5.9 5.7 92 0.5 CALM 0 0 0 0 1016.1 1016.3 0.0
 
Date/Time
EST
Temp
°C
App
Temp
°C
Dew
Point
Rel
Hum
%
Delta-T
°C
Wind Press
QNH
hPa
Press
MSL
hPa
Rain
since 9 am
mm
Dir
 
Spd
km/h
Gust
km/h
Spd
kts
Gust
kts
31/11:30pm 7.4 5.3 6.0 91 0.6 E 6 7 3 4 1016.4 - 0.0
31/11:00pm 7.1 5.3 5.3 88 0.8 ESE 4 7 2 4 1016.8 1017.0 0.0
31/10:30pm 7.7 6.7 5.8 88 0.9 CALM 0 0 0 0 1016.8 - 0.0
31/10:00pm 8.2 6.1 5.8 85 1.1 E 6 7 3 4 1017.1 1017.3 0.0
31/09:43pm 9.0 7.0 7.0 87 0.9 E 7 9 4 5 1017.2 - 0.0
31/09:30pm 8.8 6.8 7.1 89 0.8 ENE 7 9 4 5 1017.3 - 0.0
31/09:00pm 8.8 7.3 6.8 87 0.9 E 4 7 2 4 1017.6 1017.8 0.0
31/08:30pm 9.5 8.8 7.1 85 1.1 CALM 0 0 0 0 1017.6 - 0.0
31/08:00pm 10.8 9.4 7.1 78 1.8 ENE 4 7 2 4 1017.6 1017.8 0.0
31/07:30pm 11.9 11.3 7.4 74 2.2 CALM 0 7 0 4 1017.6 - 0.0
31/07:00pm 12.7 12.1 7.4 70 2.6 CALM 0 0 0 0 1017.6 1017.8 0.0
31/06:30pm 13.8 13.2 7.6 66 3.1 CALM 0 0 0 0 1017.4 - 0.0
31/06:00pm 15.2 14.7 7.7 61 3.8 CALM 0 0 0 0 1017.4 1017.6 0.0
31/05:30pm 16.7 15.3 8.7 59 4.1 SSE 6 9 3 5 1017.2 - 0.0
31/05:00pm 18.3 16.7 8.8 54 5.0 W 7 15 4 8 1017.2 1017.4 0.0
31/04:30pm 19.4 17.7 7.5 46 6.1 NNE 6 11 3 6 1017.1 - 0.0
31/04:00pm 18.7 16.6 8.4 51 5.4 NNE 9 13 5 7 1017.1 1017.3 0.0
31/03:30pm 18.9 16.5 8.6 51 5.4 ESE 11 15 6 8 1017.4 - 0.0
31/03:00pm 18.2 15.4 8.7 54 5.0 ESE 13 19 7 10 1017.6 1017.8 0.0
31/02:30pm 18.2 15.9 9.0 55 4.8 S 11 15 6 8 1018.0 - 0.0
31/02:00pm 18.7 16.4 7.5 48 5.7 E 9 13 5 7 1018.2 1018.4 0.0
31/01:30pm 17.8 15.0 7.0 49 5.4 NNE 11 17 6 9 1018.6 - 0.0
31/01:00pm 18.2 16.5 8.5 53 5.0 ENE 7 13 4 7 1019.3 1019.6 0.0
31/12:30pm 16.9 15.1 9.6 62 3.8 ESE 9 13 5 7 1019.7 - 0.0
31/12:00pm 16.6 15.5 10.7 68 3.2 ESE 7 13 4 7 1020.3 1020.6 0.0
31/11:30am 16.0 15.1 10.7 71 2.8 SE 6 11 3 6 1020.7 - 0.0
31/11:00am 14.2 12.7 9.2 72 2.6 SSE 7 9 4 5 1021.4 1021.7 0.0
31/10:30am 12.8 10.8 8.7 76 2.1 SE 9 13 5 7 1021.8 - 0.0
31/10:00am 12.5 10.9 8.6 77 1.9 E 7 11 4 6 1022.3 1022.5 0.0
31/09:30am 11.2 9.0 7.9 80 1.6 E 9 13 5 7 1022.5 - 0.0
31/09:00am 10.1 8.6 7.0 81 1.5 E 4 9 2 5 1022.9 1023.1 0.0
31/08:30am 8.5 7.7 6.3 86 1.0 CALM 0 0 0 0 1022.9 - 0.0
31/08:00am 6.8 5.9 5.9 94 0.4 CALM 0 0 0 0 1022.7 1022.9 0.0
31/07:30am 5.2 4.1 5.2 100 0.0 CALM 0 0 0 0 1022.5 - 0.0
31/07:00am 3.2 1.7 2.9 98 0.1 CALM 0 0 0 0 1022.3 1022.5 0.0
31/06:30am 2.8 1.2 2.7 99 0.0 CALM 0 0 0 0 1021.9 - 0.0
31/06:23am 3.1 1.6 3.0 99 0.0 CALM 0 0 0 0 1021.8 - 0.0
31/06:00am 3.4 2.0 3.3 99 0.0 CALM 0 0 0 0 1021.6 1021.9 0.0
31/05:58am 3.3 1.8 3.2 99 0.0 CALM 0 0 0 0 1021.6 - 0.0
31/05:30am 3.3 1.8 3.0 98 0.1 CALM 0 0 0 0 1021.3 - 0.0
31/05:00am 3.7 1.5 3.6 99 0.0 ENE 4 7 2 4 1021.1 1021.4 0.0
31/04:30am 3.2 1.7 2.8 97 0.2 CALM 0 0 0 0 1021.1 - 0.0
31/04:16am 4.0 2.6 3.6 97 0.2 CALM 0 0 0 0 1021.1 - 0.0
31/04:00am 3.8 2.4 3.4 97 0.2 CALM 0 0 0 0 1021.1 1021.4 0.0
31/03:47am 4.0 2.6 3.6 97 0.2 CALM 0 0 0 0 1021.1 - 0.0
31/03:30am 3.9 2.5 3.5 97 0.2 CALM 0 0 0 0 1021.1 - 0.0
31/03:18am 3.8 2.4 3.4 97 0.2 CALM 0 0 0 0 1021.2 - 0.0
31/03:06am 4.3 3.0 4.0 98 0.1 CALM 0 0 0 0 1021.2 - 0.0
31/03:00am 4.2 2.9 3.9 98 0.1 CALM 0 0 0 0 1021.3 1021.6 0.0
31/02:54am 4.6 3.3 4.3 98 0.1 CALM 0 0 0 0 1021.4 - 0.0
31/02:30am 4.7 3.4 4.3 97 0.2 CALM 0 0 0 0 1021.5 - 0.0
31/02:13am 5.1 3.9 4.5 96 0.3 CALM 0 0 0 0 1021.7 - 0.0
31/02:00am 5.2 4.0 4.6 96 0.3 CALM 0 0 0 0 1021.8 1022.1 0.0
31/01:30am 5.8 4.4 5.5 98 0.1 NW 2 6 1 3 1022.2 - 0.0
31/01:00am 5.8 4.4 5.5 98 0.1 NNW 2 7 1 4 1022.4 1022.6 0.0
31/12:30am 5.1 2.7 4.2 94 0.4 ENE 6 7 3 4 1022.6 - 0.0
31/12:00am 5.8 4.7 5.1 95 0.3 CALM 0 0 0 0 1022.8 1023.0 0.0
 
Date/Time
EST
Temp
°C
App
Temp
°C
Dew
Point
Rel
Hum
%
Delta-T
°C
Wind Press
QNH
hPa
Press
MSL
hPa
Rain
since 9 am
mm
Dir
 
Spd
km/h
Gust
km/h
Spd
kts
Gust
kts
30/11:30pm 6.2 5.2 5.8 97 0.2 CALM 0 0 0 0 1022.9 - 0.0
30/11:00pm 6.8 5.9 6.2 96 0.3 CALM 0 0 0 0 1023.0 1023.2 0.0
30/10:30pm 6.7 5.0 5.8 94 0.4 ENE 4 6 2 3 1022.9 - 0.0
30/10:00pm 7.1 4.9 5.4 89 0.8 E 6 7 3 4 1023.1 1023.3 0.0
30/09:30pm 8.3 7.6 7.1 92 0.6 CALM 0 0 0 0 1023.2 - 0.0
30/09:00pm 8.1 7.2 6.1 87 0.9 CALM 0 0 0 0 1023.0 1023.2 0.0
30/08:30pm 9.3 8.5 6.7 84 1.2 CALM 0 0 0 0 1023.0 - 0.0
30/08:00pm 10.7 9.3 7.4 80 1.6 ENE 4 6 2 3 1022.9 1023.1 0.0
30/07:30pm 11.3 9.9 7.2 76 2.0 N 4 7 2 4 1022.8 - 0.0
30/07:00pm 12.0 9.9 6.5 69 2.6 NNW 7 7 4 4 1022.7 1022.9 0.0
30/06:30pm 14.2 12.2 7.0 62 3.5 NNW 7 9 4 5 1022.6 - 0.0
30/06:00pm 15.5 13.4 6.8 56 4.3 NW 7 9 4 5 1022.5 1022.7 0.0
30/05:30pm 16.0 13.3 7.2 56 4.4 WNW 11 13 6 7 1022.4 - 0.0
30/05:00pm 17.4 14.5 8.0 54 4.8 WNW 13 17 7 9 1022.5 1022.7 0.0
30/04:30pm 18.0 14.8 6.8 48 5.6 W 13 17 7 9 1022.6 - 0.0
30/04:00pm 18.6 16.0 6.1 44 6.2 W 9 15 5 8 1022.7 1022.9 0.0
30/03:30pm 18.5 14.8 6.4 45 6.1 W 15 19 8 10 1022.7 - 0.0
30/03:00pm 18.5 15.3 8.5 52 5.2 W 15 20 8 11 1022.7 1022.9 0.0
30/02:30pm 18.1 14.7 7.8 51 5.3 WSW 15 20 8 11 1023.0 - 0.0
30/02:00pm 18.3 16.2 8.3 52 5.2 W 9 17 5 9 1023.2 1023.4 0.0
30/01:30pm 18.5 16.8 8.2 51 5.3 NNW 7 13 4 7 1023.5 - 0.0
30/01:00pm 18.2 16.0 6.1 45 6.0 W 7 19 4 10 1024.1 1024.4 0.0
30/12:30pm 17.5 14.4 3.8 40 6.5 NW 9 11 5 6 1024.7 - 0.0
30/12:00pm 16.8 15.1 5.7 48 5.4 NE 4 9 2 5 1025.2 1025.5 0.0
30/11:30am 16.9 15.1 7.3 53 4.8 NNE 6 9 3 5 1025.8 - 0.0
30/11:00am 15.1 13.7 7.4 60 3.8 E 4 9 2 5 1026.3 1026.6 0.0
30/10:30am 14.0 12.3 8.2 68 2.9 E 7 9 4 5 1026.7 - 0.0
30/10:00am 12.9 11.6 7.6 70 2.6 NE 4 9 2 5 1026.9 1027.2 0.0
30/09:30am 11.5 10.9 7.2 75 2.1 CALM 0 0 0 0 1027.0 - 0.0
30/09:00am 10.0 9.2 6.5 79 1.6 CALM 0 0 0 0 1027.1 1027.4 0.0
30/08:30am 7.9 5.2 5.5 85 1.1 S 9 11 5 6 1027.1 - 0.0
30/08:00am 7.5 6.3 6.3 92 0.5 SE 2 9 1 5 1026.8 1027.1 0.0

Other Formats:

Comma delimited format used in spreadsheet applications
http://www.bom.gov.au/fwo/IDN60801/IDN60801.95896.axf

JavaScript Object Notation format (JSON) in row-major order
http://www.bom.gov.au/fwo/IDN60801/IDN60801.95896.json